sensor_id;sensor_type;location;lat;lon;timestamp;P1;durP1;ratioP1;P2;durP2;ratioP2
5026;SDS011;2532;52.480;13.354;2023-10-09T04:01:49;8.50;;;5.00;;
5026;SDS011;2532;52.480;13.354;2023-10-09T04:04:18;7.50;;;4.80;;
5026;SDS011;2532;52.480;13.354;2023-10-09T04:06:48;13.03;;;9.90;;
5026;SDS011;2532;52.480;13.354;2023-10-09T04:09:16;8.33;;;5.30;;
5026;SDS011;2532;52.480;13.354;2023-10-09T04:11:54;6.43;;;4.73;;
5026;SDS011;2532;52.480;13.354;2023-10-09T04:14:45;12.57;;;6.70;;
5026;SDS011;2532;52.480;13.354;2023-10-09T04:17:21;12.43;;;6.20;;
5026;SDS011;2532;52.480;13.354;2023-10-09T04:20:01;8.23;;;5.27;;
5026;SDS011;2532;52.480;13.354;2023-10-09T04:23:08;9.53;;;6.63;;
5026;SDS011;2532;52.480;13.354;2023-10-09T04:25:41;13.10;;;5.20;;
5026;SDS011;2532;52.480;13.354;2023-10-09T04:28:10;10.93;;;6.10;;
5026;SDS011;2532;52.480;13.354;2023-10-09T04:30:44;6.27;;;4.37;;
5026;SDS011;2532;52.480;13.354;2023-10-09T04:33:19;6.50;;;4.50;;
5026;SDS011;2532;52.480;13.354;2023-10-09T04:36:01;9.23;;;4.90;;
5026;SDS011;2532;52.480;13.354;2023-10-09T04:38:47;8.00;;;5.40;;
5026;SDS011;2532;52.480;13.354;2023-10-09T04:41:35;6.53;;;4.43;;
5026;SDS011;2532;52.480;13.354;2023-10-09T04:44:17;7.17;;;4.70;;
5026;SDS011;2532;52.480;13.354;2023-10-09T04:46:44;9.10;;;6.90;;
5026;SDS011;2532;52.480;13.354;2023-10-09T04:49:32;12.80;;;5.50;;
5026;SDS011;2532;52.480;13.354;2023-10-09T04:52:15;7.40;;;5.20;;
5026;SDS011;2532;52.480;13.354;2023-10-09T04:54:44;8.57;;;4.90;;
5026;SDS011;2532;52.480;13.354;2023-10-09T04:57:39;7.70;;;4.97;;
5026;SDS011;2532;52.480;13.354;2023-10-09T05:00:11;9.40;;;5.53;;
5026;SDS011;2532;52.480;13.354;2023-10-09T05:02:48;9.87;;;5.20;;
5026;SDS011;2532;52.480;13.354;2023-10-09T05:05:19;13.40;;;5.67;;
5026;SDS011;2532;52.480;13.354;2023-10-09T05:08:00;7.83;;;5.40;;
5026;SDS011;2532;52.480;13.354;2023-10-09T05:10:43;7.03;;;4.97;;
5026;SDS011;2532;52.480;13.354;2023-10-09T05:13:31;8.07;;;5.40;;
5026;SDS011;2532;52.480;13.354;2023-10-09T05:16:09;10.70;;;5.70;;
5026;SDS011;2532;52.480;13.354;2023-10-09T05:18:41;10.70;;;6.20;;
5026;SDS011;2532;52.480;13.354;2023-10-09T05:21:10;6.90;;;5.33;;
5026;SDS011;2532;52.480;13.354;2023-10-09T05:23:51;6.70;;;4.60;;
5026;SDS011;2532;52.480;13.354;2023-10-09T05:26:32;9.10;;;6.20;;
5026;SDS011;2532;52.480;13.354;2023-10-09T05:29:17;6.83;;;6.00;;
5026;SDS011;2532;52.480;13.354;2023-10-09T05:31:44;9.67;;;5.83;;
5026;SDS011;2532;52.480;13.354;2023-10-09T05:34:22;8.13;;;5.87;;
5026;SDS011;2532;52.480;13.354;2023-10-09T05:36:48;6.50;;;4.90;;
5026;SDS011;2532;52.480;13.354;2023-10-09T05:39:15;11.57;;;5.33;;
5026;SDS011;2532;52.480;13.354;2023-10-09T05:41:55;7.13;;;4.90;;
5026;SDS011;2532;52.480;13.354;2023-10-09T05:44:34;9.37;;;5.70;;
5026;SDS011;2532;52.480;13.354;2023-10-09T05:47:19;8.20;;;4.90;;
5026;SDS011;2532;52.480;13.354;2023-10-09T05:49:57;9.30;;;5.57;;
5026;SDS011;2532;52.480;13.354;2023-10-09T05:52:41;11.13;;;6.63;;
5026;SDS011;2532;52.480;13.354;2023-10-09T05:55:35;9.53;;;5.70;;
5026;SDS011;2532;52.480;13.354;2023-10-09T05:58:19;10.63;;;6.97;;
5026;SDS011;2532;52.480;13.354;2023-10-09T06:01:04;9.87;;;5.80;;
5026;SDS011;2532;52.480;13.354;2023-10-09T06:03:48;10.60;;;5.83;;
5026;SDS011;2532;52.480;13.354;2023-10-09T06:06:19;9.03;;;5.43;;
5026;SDS011;2532;52.480;13.354;2023-10-09T06:08:59;8.43;;;5.00;;
5026;SDS011;2532;52.480;13.354;2023-10-09T06:11:55;7.77;;;6.17;;
5026;SDS011;2532;52.480;13.354;2023-10-09T06:14:41;8.27;;;5.60;;
5026;SDS011;2532;52.480;13.354;2023-10-09T06:17:23;10.70;;;5.90;;
5026;SDS011;2532;52.480;13.354;2023-10-09T06:19:51;9.90;;;5.57;;
5026;SDS011;2532;52.480;13.354;2023-10-09T06:22:24;12.10;;;4.60;;
5026;SDS011;2532;52.480;13.354;2023-10-09T06:25:08;14.17;;;5.40;;
5026;SDS011;2532;52.480;13.354;2023-10-09T06:27:38;10.33;;;6.20;;
5026;SDS011;2532;52.480;13.354;2023-10-09T06:30:19;9.03;;;5.00;;
5026;SDS011;2532;52.480;13.354;2023-10-09T06:32:52;7.17;;;4.80;;
5026;SDS011;2532;52.480;13.354;2023-10-09T06:35:33;6.53;;;4.97;;
5026;SDS011;2532;52.480;13.354;2023-10-09T06:38:01;10.80;;;5.73;;
5026;SDS011;2532;52.480;13.354;2023-10-09T06:40:58;7.80;;;5.40;;
5026;SDS011;2532;52.480;13.354;2023-10-09T06:43:44;11.13;;;6.10;;
5026;SDS011;2532;52.480;13.354;2023-10-09T06:46:16;8.53;;;5.47;;
5026;SDS011;2532;52.480;13.354;2023-10-09T06:49:02;7.77;;;4.57;;
5026;SDS011;2532;52.480;13.354;2023-10-09T06:51:54;7.80;;;4.90;;
5026;SDS011;2532;52.480;13.354;2023-10-09T06:54:39;9.67;;;5.87;;
5026;SDS011;2532;52.480;13.354;2023-10-09T06:57:14;12.20;;;6.87;;
5026;SDS011;2532;52.480;13.354;2023-10-09T07:00:04;7.40;;;5.30;;
5026;SDS011;2532;52.480;13.354;2023-10-09T07:02:50;7.30;;;5.23;;
5026;SDS011;2532;52.480;13.354;2023-10-09T07:05:18;8.50;;;5.20;;
5026;SDS011;2532;52.480;13.354;2023-10-09T07:07:44;6.73;;;4.90;;
5026;SDS011;2532;52.480;13.354;2023-10-09T07:10:20;8.47;;;5.70;;
5026;SDS011;2532;52.480;13.354;2023-10-09T07:13:04;8.27;;;5.73;;
5026;SDS011;2532;52.480;13.354;2023-10-09T07:15:33;7.17;;;4.90;;
5026;SDS011;2532;52.480;13.354;2023-10-09T07:18:19;6.80;;;5.50;;
5026;SDS011;2532;52.480;13.354;2023-10-09T07:20:48;11.40;;;5.37;;
5026;SDS011;2532;52.480;13.354;2023-10-09T07:23:26;12.33;;;5.60;;
5026;SDS011;2532;52.480;13.354;2023-10-09T07:26:04;11.63;;;5.30;;
5026;SDS011;2532;52.480;13.354;2023-10-09T07:28:48;8.57;;;5.60;;
5026;SDS011;2532;52.480;13.354;2023-10-09T07:31:20;9.40;;;6.53;;
5026;SDS011;2532;52.480;13.354;2023-10-09T07:33:52;12.40;;;6.37;;
5026;SDS011;2532;52.480;13.354;2023-10-09T07:36:32;9.73;;;5.60;;
5026;SDS011;2532;52.480;13.354;2023-10-09T07:39:03;10.67;;;6.23;;
5026;SDS011;2532;52.480;13.354;2023-10-09T07:41:39;8.60;;;6.30;;
5026;SDS011;2532;52.480;13.354;2023-10-09T07:44:10;8.60;;;6.77;;
5026;SDS011;2532;52.480;13.354;2023-10-09T07:47:01;10.67;;;6.47;;
5026;SDS011;2532;52.480;13.354;2023-10-09T07:49:45;14.87;;;6.70;;
5026;SDS011;2532;52.480;13.354;2023-10-09T07:52:21;12.40;;;8.63;;
5026;SDS011;2532;52.480;13.354;2023-10-09T07:55:08;14.43;;;6.90;;
5026;SDS011;2532;52.480;13.354;2023-10-09T07:57:51;8.47;;;6.33;;
5026;SDS011;2532;52.480;13.354;2023-10-09T08:00:18;9.70;;;6.00;;
5026;SDS011;2532;52.480;13.354;2023-10-09T08:03:25;9.40;;;5.80;;
5026;SDS011;2532;52.480;13.354;2023-10-09T08:05:57;13.03;;;6.10;;
5026;SDS011;2532;52.480;13.354;2023-10-09T08:08:32;8.07;;;5.83;;
5026;SDS011;2532;52.480;13.354;2023-10-09T08:11:28;7.97;;;5.80;;
5026;SDS011;2532;52.480;13.354;2023-10-09T08:14:20;11.30;;;7.20;;
5026;SDS011;2532;52.480;13.354;2023-10-09T08:17:07;8.57;;;5.80;;
5026;SDS011;2532;52.480;13.354;2023-10-09T08:19:45;9.50;;;5.80;;
5026;SDS011;2532;52.480;13.354;2023-10-09T08:22:26;12.53;;;7.13;;
5026;SDS011;2532;52.480;13.354;2023-10-09T08:25:08;8.50;;;6.10;;
5026;SDS011;2532;52.480;13.354;2023-10-09T08:27:51;11.13;;;6.87;;
5026;SDS011;2532;52.480;13.354;2023-10-09T08:30:22;12.80;;;7.10;;
5026;SDS011;2532;52.480;13.354;2023-10-09T08:33:06;13.63;;;6.20;;
5026;SDS011;2532;52.480;13.354;2023-10-09T08:35:52;11.03;;;6.23;;
5026;SDS011;2532;52.480;13.354;2023-10-09T08:38:27;12.17;;;6.10;;
5026;SDS011;2532;52.480;13.354;2023-10-09T08:41:05;7.63;;;5.67;;
5026;SDS011;2532;52.480;13.354;2023-10-09T08:43:42;11.33;;;5.10;;
5026;SDS011;2532;52.480;13.354;2023-10-09T08:46:15;7.63;;;5.83;;
5026;SDS011;2532;52.480;13.354;2023-10-09T08:48:46;10.13;;;6.40;;
5026;SDS011;2532;52.480;13.354;2023-10-09T08:51:15;11.23;;;7.60;;
5026;SDS011;2532;52.480;13.354;2023-10-09T08:53:45;12.00;;;7.20;;
5026;SDS011;2532;52.480;13.354;2023-10-09T08:56:12;9.40;;;6.60;;
5026;SDS011;2532;52.480;13.354;2023-10-09T08:58:47;8.33;;;6.33;;
5026;SDS011;2532;52.480;13.354;2023-10-09T09:01:16;10.00;;;6.33;;
5026;SDS011;2532;52.480;13.354;2023-10-09T09:03:46;11.90;;;6.30;;
5026;SDS011;2532;52.480;13.354;2023-10-09T09:06:17;8.77;;;5.70;;
5026;SDS011;2532;52.480;13.354;2023-10-09T09:08:45;6.87;;;4.57;;
5026;SDS011;2532;52.480;13.354;2023-10-09T09:11:13;8.93;;;5.63;;
5026;SDS011;2532;52.480;13.354;2023-10-09T09:13:42;7.40;;;5.70;;
5026;SDS011;2532;52.480;13.354;2023-10-09T09:16:17;9.43;;;6.00;;
5026;SDS011;2532;52.480;13.354;2023-10-09T09:18:49;14.93;;;5.40;;
5026;SDS011;2532;52.480;13.354;2023-10-09T09:21:23;10.70;;;5.73;;
5026;SDS011;2532;52.480;13.354;2023-10-09T09:23:53;8.90;;;5.63;;
5026;SDS011;2532;52.480;13.354;2023-10-09T09:26:32;10.30;;;6.97;;
5026;SDS011;2532;52.480;13.354;2023-10-09T09:29:02;9.33;;;5.90;;
5026;SDS011;2532;52.480;13.354;2023-10-09T09:31:34;11.80;;;5.97;;
5026;SDS011;2532;52.480;13.354;2023-10-09T09:34:07;7.33;;;5.70;;
5026;SDS011;2532;52.480;13.354;2023-10-09T09:36:53;6.67;;;5.50;;
5026;SDS011;2532;52.480;13.354;2023-10-09T09:39:21;10.30;;;6.13;;
5026;SDS011;2532;52.480;13.354;2023-10-09T09:41:56;6.50;;;5.53;;
5026;SDS011;2532;52.480;13.354;2023-10-09T09:44:31;9.73;;;5.80;;
5026;SDS011;2532;52.480;13.354;2023-10-09T09:47:08;7.83;;;5.97;;
5026;SDS011;2532;52.480;13.354;2023-10-09T09:49:38;8.87;;;6.13;;
5026;SDS011;2532;52.480;13.354;2023-10-09T09:52:08;9.77;;;5.97;;
5026;SDS011;2532;52.480;13.354;2023-10-09T09:54:37;9.50;;;6.73;;
5026;SDS011;2532;52.480;13.354;2023-10-09T09:57:06;10.97;;;7.50;;
5026;SDS011;2532;52.480;13.354;2023-10-09T09:59:38;14.30;;;7.00;;
5026;SDS011;2532;52.480;13.354;2023-10-09T10:02:15;11.87;;;7.17;;
5026;SDS011;2532;52.480;13.354;2023-10-09T10:04:47;11.23;;;6.90;;
5026;SDS011;2532;52.480;13.354;2023-10-09T10:07:24;9.23;;;6.63;;
5026;SDS011;2532;52.480;13.354;2023-10-09T10:09:55;7.60;;;5.90;;
5026;SDS011;2532;52.480;13.354;2023-10-09T10:18:22;9.60;;;6.23;;
5026;SDS011;2532;52.480;13.354;2023-10-09T10:21:08;32.60;;;19.80;;
5026;SDS011;2532;52.480;13.354;2023-10-09T10:23:42;10.77;;;7.10;;
5026;SDS011;2532;52.480;13.354;2023-10-09T10:26:21;11.23;;;7.43;;
5026;SDS011;2532;52.480;13.354;2023-10-09T10:31:52;8.33;;;5.97;;
5026;SDS011;2532;52.480;13.354;2023-10-09T10:34:21;11.03;;;6.43;;
5026;SDS011;2532;52.480;13.354;2023-10-09T10:36:50;8.03;;;6.73;;
5026;SDS011;2532;52.480;13.354;2023-10-09T10:39:25;10.13;;;6.40;;
5026;SDS011;2532;52.480;13.354;2023-10-09T10:42:10;9.40;;;6.67;;
5026;SDS011;2532;52.480;13.354;2023-10-09T10:44:59;10.60;;;6.97;;
5026;SDS011;2532;52.480;13.354;2023-10-09T10:47:27;9.07;;;7.00;;
5026;SDS011;2532;52.480;13.354;2023-10-09T10:49:59;8.83;;;7.43;;
5026;SDS011;2532;52.480;13.354;2023-10-09T10:52:52;10.30;;;6.73;;
5026;SDS011;2532;52.480;13.354;2023-10-09T10:55:24;7.93;;;6.60;;
5026;SDS011;2532;52.480;13.354;2023-10-09T10:58:14;11.60;;;7.43;;
5026;SDS011;2532;52.480;13.354;2023-10-09T11:00:51;9.40;;;7.07;;
5026;SDS011;2532;52.480;13.354;2023-10-09T11:03:37;9.90;;;8.00;;
5026;SDS011;2532;52.480;13.354;2023-10-09T11:06:23;12.20;;;8.43;;
5026;SDS011;2532;52.480;13.354;2023-10-09T11:09:00;10.63;;;7.80;;
5026;SDS011;2532;52.480;13.354;2023-10-09T11:11:37;13.67;;;8.13;;
5026;SDS011;2532;52.480;13.354;2023-10-09T11:14:08;11.80;;;8.60;;
5026;SDS011;2532;52.480;13.354;2023-10-09T11:16:39;9.43;;;7.53;;
5026;SDS011;2532;52.480;13.354;2023-10-09T11:19:13;11.87;;;8.57;;
5026;SDS011;2532;52.480;13.354;2023-10-09T11:22:04;14.77;;;8.53;;
5026;SDS011;2532;52.480;13.354;2023-10-09T11:24:53;9.77;;;7.80;;
5026;SDS011;2532;52.480;13.354;2023-10-09T11:27:36;11.03;;;8.13;;
5026;SDS011;2532;52.480;13.354;2023-10-09T11:30:05;8.10;;;7.30;;
5026;SDS011;2532;52.480;13.354;2023-10-09T11:32:35;8.80;;;7.50;;
5026;SDS011;2532;52.480;13.354;2023-10-09T11:35:11;12.70;;;7.67;;
5026;SDS011;2532;52.480;13.354;2023-10-09T11:37:42;8.50;;;7.60;;
5026;SDS011;2532;52.480;13.354;2023-10-09T11:40:41;12.17;;;8.90;;
5026;SDS011;2532;52.480;13.354;2023-10-09T11:43:31;9.17;;;7.40;;
5026;SDS011;2532;52.480;13.354;2023-10-09T11:46:17;11.40;;;8.17;;
5026;SDS011;2532;52.480;13.354;2023-10-09T11:49:03;10.10;;;8.80;;
5026;SDS011;2532;52.480;13.354;2023-10-09T11:51:51;10.50;;;8.20;;
5026;SDS011;2532;52.480;13.354;2023-10-09T11:54:50;9.03;;;8.00;;
5026;SDS011;2532;52.480;13.354;2023-10-09T11:57:22;11.30;;;8.90;;
5026;SDS011;2532;52.480;13.354;2023-10-09T11:59:57;10.43;;;8.23;;
5026;SDS011;2532;52.480;13.354;2023-10-09T12:02:25;9.10;;;7.00;;
5026;SDS011;2532;52.480;13.354;2023-10-09T12:04:52;10.63;;;7.93;;
5026;SDS011;2532;52.480;13.354;2023-10-09T12:07:21;9.37;;;7.40;;
5026;SDS011;2532;52.480;13.354;2023-10-09T12:09:50;11.80;;;8.90;;
5026;SDS011;2532;52.480;13.354;2023-10-09T12:12:21;14.47;;;9.37;;
5026;SDS011;2532;52.480;13.354;2023-10-09T12:14:51;9.93;;;8.30;;
5026;SDS011;2532;52.480;13.354;2023-10-09T12:17:20;12.10;;;8.83;;
5026;SDS011;2532;52.480;13.354;2023-10-09T12:19:51;12.50;;;8.17;;
5026;SDS011;2532;52.480;13.354;2023-10-09T12:22:18;13.40;;;8.53;;
5026;SDS011;2532;52.480;13.354;2023-10-09T12:24:46;11.40;;;8.30;;
5026;SDS011;2532;52.480;13.354;2023-10-09T12:27:14;9.03;;;8.00;;
5026;SDS011;2532;52.480;13.354;2023-10-09T12:29:45;13.13;;;9.07;;
5026;SDS011;2532;52.480;13.354;2023-10-09T12:32:13;10.00;;;7.90;;
5026;SDS011;2532;52.480;13.354;2023-10-09T12:34:46;11.73;;;8.23;;
5026;SDS011;2532;52.480;13.354;2023-10-09T12:37:15;11.30;;;8.67;;
5026;SDS011;2532;52.480;13.354;2023-10-09T12:39:45;13.53;;;9.30;;
5026;SDS011;2532;52.480;13.354;2023-10-09T12:42:13;9.80;;;8.80;;
5026;SDS011;2532;52.480;13.354;2023-10-09T12:44:42;14.87;;;9.87;;
5026;SDS011;2532;52.480;13.354;2023-10-09T12:47:09;11.13;;;8.63;;
5026;SDS011;2532;52.480;13.354;2023-10-09T12:49:37;12.37;;;9.50;;
5026;SDS011;2532;52.480;13.354;2023-10-09T12:52:07;15.60;;;11.20;;
5026;SDS011;2532;52.480;13.354;2023-10-09T12:54:41;10.53;;;9.13;;
5026;SDS011;2532;52.480;13.354;2023-10-09T12:57:08;15.23;;;10.73;;
5026;SDS011;2532;52.480;13.354;2023-10-09T12:59:39;17.23;;;12.17;;
5026;SDS011;2532;52.480;13.354;2023-10-09T13:02:11;13.67;;;11.40;;
5026;SDS011;2532;52.480;13.354;2023-10-09T13:04:38;12.60;;;9.80;;
5026;SDS011;2532;52.480;13.354;2023-10-09T13:07:08;16.83;;;11.30;;
5026;SDS011;2532;52.480;13.354;2023-10-09T13:09:38;15.13;;;10.07;;
5026;SDS011;2532;52.480;13.354;2023-10-09T13:12:08;12.97;;;10.47;;
5026;SDS011;2532;52.480;13.354;2023-10-09T13:14:43;13.20;;;11.10;;
5026;SDS011;2532;52.480;13.354;2023-10-09T13:17:13;14.07;;;11.07;;
5026;SDS011;2532;52.480;13.354;2023-10-09T13:19:40;16.47;;;11.97;;
5026;SDS011;2532;52.480;13.354;2023-10-09T13:22:10;16.00;;;11.00;;
5026;SDS011;2532;52.480;13.354;2023-10-09T13:24:39;17.50;;;12.40;;
5026;SDS011;2532;52.480;13.354;2023-10-09T13:27:07;15.03;;;12.37;;
5026;SDS011;2532;52.480;13.354;2023-10-09T13:29:36;14.27;;;11.27;;
5026;SDS011;2532;52.480;13.354;2023-10-09T13:32:07;14.13;;;11.43;;
5026;SDS011;2532;52.480;13.354;2023-10-09T13:34:40;15.20;;;10.43;;
5026;SDS011;2532;52.480;13.354;2023-10-09T13:37:11;20.30;;;14.20;;
5026;SDS011;2532;52.480;13.354;2023-10-09T13:39:44;15.77;;;12.93;;
5026;SDS011;2532;52.480;13.354;2023-10-09T13:42:18;14.50;;;11.23;;
5026;SDS011;2532;52.480;13.354;2023-10-09T13:44:50;14.03;;;10.93;;
5026;SDS011;2532;52.480;13.354;2023-10-09T13:47:19;14.40;;;11.10;;
5026;SDS011;2532;52.480;13.354;2023-10-09T13:49:46;14.70;;;11.13;;
5026;SDS011;2532;52.480;13.354;2023-10-09T13:52:17;15.47;;;10.43;;
5026;SDS011;2532;52.480;13.354;2023-10-09T13:54:44;14.13;;;10.13;;
5026;SDS011;2532;52.480;13.354;2023-10-09T13:57:15;17.13;;;13.70;;
5026;SDS011;2532;52.480;13.354;2023-10-09T13:59:42;14.80;;;10.50;;
5026;SDS011;2532;52.480;13.354;2023-10-09T14:02:14;12.40;;;9.63;;
5026;SDS011;2532;52.480;13.354;2023-10-09T14:04:44;11.00;;;9.80;;
5026;SDS011;2532;52.480;13.354;2023-10-09T14:07:11;12.63;;;10.17;;
5026;SDS011;2532;52.480;13.354;2023-10-09T14:09:43;13.17;;;11.20;;
5026;SDS011;2532;52.480;13.354;2023-10-09T14:12:21;14.80;;;10.70;;
5026;SDS011;2532;52.480;13.354;2023-10-09T14:14:50;14.50;;;11.23;;
5026;SDS011;2532;52.480;13.354;2023-10-09T14:17:19;16.63;;;10.60;;
5026;SDS011;2532;52.480;13.354;2023-10-09T14:19:50;10.77;;;9.40;;
5026;SDS011;2532;52.480;13.354;2023-10-09T14:22:19;14.73;;;11.17;;
5026;SDS011;2532;52.480;13.354;2023-10-09T14:24:51;13.50;;;10.63;;
5026;SDS011;2532;52.480;13.354;2023-10-09T14:27:21;14.70;;;10.83;;
5026;SDS011;2532;52.480;13.354;2023-10-09T14:29:51;13.80;;;11.43;;
5026;SDS011;2532;52.480;13.354;2023-10-09T14:32:22;12.60;;;10.10;;
5026;SDS011;2532;52.480;13.354;2023-10-09T14:34:54;15.83;;;11.80;;
5026;SDS011;2532;52.480;13.354;2023-10-09T14:37:26;19.17;;;11.30;;
5026;SDS011;2532;52.480;13.354;2023-10-09T14:39:56;12.03;;;10.00;;
5026;SDS011;2532;52.480;13.354;2023-10-09T14:42:23;13.30;;;10.23;;
5026;SDS011;2532;52.480;13.354;2023-10-09T14:44:53;16.40;;;10.93;;
5026;SDS011;2532;52.480;13.354;2023-10-09T14:47:20;14.33;;;10.63;;
5026;SDS011;2532;52.480;13.354;2023-10-09T14:49:47;12.67;;;11.13;;
5026;SDS011;2532;52.480;13.354;2023-10-09T14:52:15;15.27;;;11.53;;
5026;SDS011;2532;52.480;13.354;2023-10-09T14:54:44;13.87;;;11.00;;
5026;SDS011;2532;52.480;13.354;2023-10-09T14:57:12;13.10;;;10.00;;
5026;SDS011;2532;52.480;13.354;2023-10-09T14:59:40;12.33;;;10.20;;
5026;SDS011;2532;52.480;13.354;2023-10-09T15:02:08;12.63;;;10.90;;
5026;SDS011;2532;52.480;13.354;2023-10-09T15:04:37;12.00;;;9.93;;
5026;SDS011;2532;52.480;13.354;2023-10-09T15:07:04;14.10;;;10.10;;
5026;SDS011;2532;52.480;13.354;2023-10-09T15:09:32;11.30;;;9.40;;
5026;SDS011;2532;52.480;13.354;2023-10-09T15:12:01;11.50;;;9.00;;
5026;SDS011;2532;52.480;13.354;2023-10-09T15:14:33;11.87;;;9.77;;
5026;SDS011;2532;52.480;13.354;2023-10-09T15:17:00;14.07;;;9.87;;
5026;SDS011;2532;52.480;13.354;2023-10-09T15:19:28;14.30;;;9.50;;
5026;SDS011;2532;52.480;13.354;2023-10-09T15:21:55;10.83;;;9.17;;
5026;SDS011;2532;52.480;13.354;2023-10-09T15:24:23;17.50;;;9.90;;
5026;SDS011;2532;52.480;13.354;2023-10-09T15:26:52;13.27;;;10.20;;
5026;SDS011;2532;52.480;13.354;2023-10-09T15:29:22;12.73;;;9.03;;
5026;SDS011;2532;52.480;13.354;2023-10-09T15:31:55;14.77;;;9.63;;
5026;SDS011;2532;52.480;13.354;2023-10-09T15:34:25;11.40;;;9.53;;
5026;SDS011;2532;52.480;13.354;2023-10-09T15:36:53;12.60;;;10.17;;
5026;SDS011;2532;52.480;13.354;2023-10-09T15:39:26;12.70;;;10.10;;
5026;SDS011;2532;52.480;13.354;2023-10-09T15:41:53;15.40;;;10.53;;
5026;SDS011;2532;52.480;13.354;2023-10-09T15:44:20;13.20;;;9.87;;
5026;SDS011;2532;52.480;13.354;2023-10-09T15:46:50;17.93;;;9.93;;
5026;SDS011;2532;52.480;13.354;2023-10-09T15:49:26;14.70;;;9.37;;
5026;SDS011;2532;52.480;13.354;2023-10-09T15:51:55;13.13;;;9.57;;
5026;SDS011;2532;52.480;13.354;2023-10-09T15:54:23;12.07;;;9.20;;
5026;SDS011;2532;52.480;13.354;2023-10-09T15:56:52;15.17;;;9.17;;
5026;SDS011;2532;52.480;13.354;2023-10-09T15:59:20;13.97;;;10.27;;
5026;SDS011;2532;52.480;13.354;2023-10-09T16:01:49;13.70;;;9.90;;
5026;SDS011;2532;52.480;13.354;2023-10-09T16:04:20;11.00;;;9.40;;
5026;SDS011;2532;52.480;13.354;2023-10-09T16:06:48;14.27;;;10.23;;
5026;SDS011;2532;52.480;13.354;2023-10-09T16:09:17;13.30;;;9.97;;
5026;SDS011;2532;52.480;13.354;2023-10-09T16:11:46;15.07;;;10.00;;
5026;SDS011;2532;52.480;13.354;2023-10-09T16:14:14;13.13;;;10.40;;
5026;SDS011;2532;52.480;13.354;2023-10-09T16:16:41;17.37;;;11.23;;
5026;SDS011;2532;52.480;13.354;2023-10-09T16:19:09;16.13;;;10.60;;
5026;SDS011;2532;52.480;13.354;2023-10-09T16:21:37;12.50;;;9.37;;
5026;SDS011;2532;52.480;13.354;2023-10-09T16:24:07;14.93;;;9.00;;
5026;SDS011;2532;52.480;13.354;2023-10-09T16:26:35;12.60;;;10.93;;
5026;SDS011;2532;52.480;13.354;2023-10-09T16:29:07;14.30;;;10.40;;
5026;SDS011;2532;52.480;13.354;2023-10-09T16:31:35;14.00;;;10.50;;
5026;SDS011;2532;52.480;13.354;2023-10-09T16:34:02;13.70;;;9.80;;
5026;SDS011;2532;52.480;13.354;2023-10-09T16:36:29;14.40;;;11.07;;
5026;SDS011;2532;52.480;13.354;2023-10-09T16:38:57;13.80;;;11.13;;
5026;SDS011;2532;52.480;13.354;2023-10-09T16:41:26;15.30;;;11.53;;
5026;SDS011;2532;52.480;13.354;2023-10-09T16:43:53;17.90;;;10.93;;
5026;SDS011;2532;52.480;13.354;2023-10-09T16:46:37;13.27;;;10.90;;
5026;SDS011;2532;52.480;13.354;2023-10-09T16:49:05;16.93;;;12.87;;
5026;SDS011;2532;52.480;13.354;2023-10-09T16:51:33;15.77;;;11.43;;
5026;SDS011;2532;52.480;13.354;2023-10-09T16:54:01;16.47;;;11.63;;
5026;SDS011;2532;52.480;13.354;2023-10-09T16:56:31;15.27;;;11.80;;
5026;SDS011;2532;52.480;13.354;2023-10-09T16:59:07;14.80;;;11.47;;
5026;SDS011;2532;52.480;13.354;2023-10-09T17:01:39;16.67;;;12.40;;
5026;SDS011;2532;52.480;13.354;2023-10-09T17:04:07;13.93;;;12.10;;
5026;SDS011;2532;52.480;13.354;2023-10-09T17:06:37;14.00;;;11.23;;
5026;SDS011;2532;52.480;13.354;2023-10-09T17:09:15;16.53;;;11.60;;
5026;SDS011;2532;52.480;13.354;2023-10-09T17:11:46;16.20;;;12.33;;
5026;SDS011;2532;52.480;13.354;2023-10-09T17:14:17;14.87;;;12.27;;
5026;SDS011;2532;52.480;13.354;2023-10-09T17:16:51;17.77;;;12.30;;
5026;SDS011;2532;52.480;13.354;2023-10-09T17:19:19;17.47;;;13.20;;
5026;SDS011;2532;52.480;13.354;2023-10-09T17:21:48;16.50;;;12.90;;
5026;SDS011;2532;52.480;13.354;2023-10-09T17:24:15;19.30;;;14.70;;
5026;SDS011;2532;52.480;13.354;2023-10-09T17:26:46;18.63;;;13.40;;
5026;SDS011;2532;52.480;13.354;2023-10-09T17:29:16;17.03;;;13.07;;
5026;SDS011;2532;52.480;13.354;2023-10-09T17:31:43;18.90;;;13.00;;
5026;SDS011;2532;52.480;13.354;2023-10-09T17:34:11;18.53;;;12.63;;
5026;SDS011;2532;52.480;13.354;2023-10-09T17:36:38;18.50;;;13.87;;
5026;SDS011;2532;52.480;13.354;2023-10-09T17:39:06;21.97;;;16.13;;
5026;SDS011;2532;52.480;13.354;2023-10-09T17:41:33;20.57;;;13.70;;
5026;SDS011;2532;52.480;13.354;2023-10-09T17:44:02;17.10;;;11.77;;
5026;SDS011;2532;52.480;13.354;2023-10-09T17:46:33;17.37;;;12.30;;
5026;SDS011;2532;52.480;13.354;2023-10-09T17:49:01;16.43;;;11.80;;
5026;SDS011;2532;52.480;13.354;2023-10-09T17:51:28;18.43;;;13.60;;
5026;SDS011;2532;52.480;13.354;2023-10-09T17:53:56;19.43;;;13.17;;
5026;SDS011;2532;52.480;13.354;2023-10-09T17:56:23;18.77;;;13.97;;
5026;SDS011;2532;52.480;13.354;2023-10-09T17:58:51;17.17;;;12.93;;
5026;SDS011;2532;52.480;13.354;2023-10-09T18:01:19;18.43;;;13.57;;
5026;SDS011;2532;52.480;13.354;2023-10-09T18:03:50;18.50;;;12.70;;
5026;SDS011;2532;52.480;13.354;2023-10-09T18:06:17;17.23;;;12.30;;
5026;SDS011;2532;52.480;13.354;2023-10-09T18:08:44;17.53;;;11.63;;
5026;SDS011;2532;52.480;13.354;2023-10-09T18:11:13;17.23;;;12.00;;
5026;SDS011;2532;52.480;13.354;2023-10-09T18:13:43;16.77;;;12.07;;
5026;SDS011;2532;52.480;13.354;2023-10-09T18:16:10;15.60;;;11.50;;
5026;SDS011;2532;52.480;13.354;2023-10-09T18:18:42;14.20;;;11.20;;
5026;SDS011;2532;52.480;13.354;2023-10-09T18:21:18;15.43;;;11.70;;
5026;SDS011;2532;52.480;13.354;2023-10-09T18:23:45;16.87;;;13.20;;
5026;SDS011;2532;52.480;13.354;2023-10-09T18:26:13;20.20;;;14.20;;
5026;SDS011;2532;52.480;13.354;2023-10-09T18:28:40;18.47;;;13.83;;
5026;SDS011;2532;52.480;13.354;2023-10-09T18:31:10;18.10;;;12.30;;
5026;SDS011;2532;52.480;13.354;2023-10-09T18:33:46;16.73;;;11.60;;
5026;SDS011;2532;52.480;13.354;2023-10-09T18:36:17;17.20;;;12.87;;
5026;SDS011;2532;52.480;13.354;2023-10-09T18:38:45;19.50;;;11.90;;
5026;SDS011;2532;52.480;13.354;2023-10-09T18:41:15;14.00;;;10.77;;
5026;SDS011;2532;52.480;13.354;2023-10-09T18:43:43;15.23;;;11.47;;
5026;SDS011;2532;52.480;13.354;2023-10-09T18:46:13;16.33;;;12.70;;
5026;SDS011;2532;52.480;13.354;2023-10-09T18:48:40;18.30;;;11.13;;
5026;SDS011;2532;52.480;13.354;2023-10-09T18:51:13;19.93;;;11.93;;
5026;SDS011;2532;52.480;13.354;2023-10-09T18:53:42;15.57;;;10.93;;
5026;SDS011;2532;52.480;13.354;2023-10-09T18:56:11;18.50;;;11.70;;
5026;SDS011;2532;52.480;13.354;2023-10-09T18:58:39;14.97;;;11.47;;
5026;SDS011;2532;52.480;13.354;2023-10-09T19:01:06;16.77;;;11.83;;
5026;SDS011;2532;52.480;13.354;2023-10-09T19:03:38;16.90;;;11.90;;
5026;SDS011;2532;52.480;13.354;2023-10-09T19:06:05;15.00;;;10.80;;
5026;SDS011;2532;52.480;13.354;2023-10-09T19:08:37;16.07;;;11.67;;
5026;SDS011;2532;52.480;13.354;2023-10-09T19:11:04;18.47;;;14.03;;
5026;SDS011;2532;52.480;13.354;2023-10-09T19:13:34;19.63;;;12.73;;
5026;SDS011;2532;52.480;13.354;2023-10-09T19:16:01;15.57;;;11.63;;
5026;SDS011;2532;52.480;13.354;2023-10-09T19:18:30;15.37;;;10.40;;
5026;SDS011;2532;52.480;13.354;2023-10-09T19:21:02;14.70;;;11.27;;
5026;SDS011;2532;52.480;13.354;2023-10-09T19:23:33;16.70;;;10.43;;
5026;SDS011;2532;52.480;13.354;2023-10-09T19:26:02;13.77;;;11.40;;
5026;SDS011;2532;52.480;13.354;2023-10-09T19:28:30;13.87;;;11.00;;
5026;SDS011;2532;52.480;13.354;2023-10-09T19:31:03;13.80;;;10.70;;
5026;SDS011;2532;52.480;13.354;2023-10-09T19:33:31;18.23;;;11.30;;